Saturday, August 18, 2018, 2:45 PM CDT
Back to Local

KT82, Fredericksburg, Gillespie County Airport

Location: Fredericksburg, TX, United States Lat: 30.244
Local Time: 2:45 PM CDT (19:45 GMT) Lon: -98.909
Time Zone: US/Central Elev: 1696 ft

Show me the last for .
Show Decoded

2018-08-18 14:15 METAR KT82 181915Z AUTO 00000KT 10SM CLR 35/12 A3003 RMK AO2 T03490119 =
2018-08-18 13:55 METAR KT82 181855Z AUTO 00000KT 10SM CLR 35/12 A3004 RMK AO2 T03520122 =
2018-08-18 13:35 METAR KT82 181835Z AUTO 00000KT 10SM CLR 35/13 A3005 RMK AO2 T03450127 =
2018-08-18 13:15 METAR KT82 181815Z AUTO 00000KT 10SM CLR 34/13 A3006 RMK AO2 T03370126 =
2018-08-18 12:55 METAR KT82 181755Z AUTO 00000KT 10SM CLR 34/13 A3007 RMK AO2 T03430129 10343
                 20221 =
2018-08-18 12:35 METAR KT82 181735Z AUTO 00000KT 10SM CLR 33/13 A3007 RMK AO2 T03330130 =
2018-08-18 12:15 METAR KT82 181715Z AUTO 00000KT 10SM CLR 33/12 A3008 RMK AO2 T03280123 =
2018-08-18 11:55 METAR KT82 181655Z AUTO 00000KT 10SM CLR 33/13 A3008 RMK AO2 T03250126 =
2018-08-18 11:35 METAR KT82 181635Z AUTO 00000KT 10SM CLR 32/13 A3009 RMK AO2 T03180127 =
2018-08-18 11:15 METAR KT82 181615Z AUTO 00000KT 10SM CLR 32/13 A3009 RMK AO2 T03160132 =
2018-08-18 10:55 METAR KT82 181555Z AUTO 00000KT 10SM CLR 30/13 A3010 RMK AO2 T03030133 =
2018-08-18 10:35 METAR KT82 181535Z AUTO 00000KT 10SM CLR 30/14 A3010 RMK AO2 T02970138 =
2018-08-18 10:15 METAR KT82 181515Z AUTO 00000KT 10SM CLR 29/16 A3011 RMK AO2 T02870162 =
2018-08-18 09:55 METAR KT82 181455Z AUTO 00000KT 10SM CLR 27/18 A3011 RMK AO2 T02710179 =
2018-08-18 09:35 METAR KT82 181435Z AUTO 00000KT 10SM CLR 26/19 A3011 RMK AO2 T02580190 =
2018-08-18 09:15 METAR KT82 181415Z AUTO 00000KT 10SM CLR 25/19 A3012 RMK AO2 T02500194 =
2018-08-18 08:55 METAR KT82 181355Z AUTO 00000KT 10SM CLR 24/20 A3012 RMK AO2 T02400200 =
2018-08-18 08:35 METAR KT82 181335Z AUTO 00000KT 10SM CLR 23/20 A3012 RMK AO2 T02340198 =
2018-08-18 08:15 METAR KT82 181315Z AUTO 00000KT 10SM CLR 23/20 A3011 RMK AO2 T02290195 =
2018-08-18 07:55 METAR KT82 181255Z AUTO 00000KT 10SM CLR 23/19 A3011 RMK AO2 T02250192 =
2018-08-18 07:35 METAR KT82 181235Z AUTO 00000KT 10SM CLR 22/19 A3011 RMK AO2 T02220190 =
2018-08-18 07:15 METAR KT82 181215Z AUTO 00000KT 10SM CLR 22/19 A3010 RMK AO2 T02220187 =
2018-08-18 06:55 METAR KT82 181155Z AUTO 00000KT 10SM CLR 22/19 A3009 RMK AO2 T02220185 10262
                 20221 =
2018-08-18 06:35 METAR KT82 181135Z AUTO 00000KT 10SM CLR 22/18 A3009 RMK AO2 T02220181 =
2018-08-18 06:15 METAR KT82 181115Z AUTO 00000KT 10SM CLR 22/18 A3009 RMK AO2 T02220180 =
2018-08-18 05:55 METAR KT82 181055Z AUTO 00000KT 10SM CLR 23/18 A3009 RMK AO2 T02260180 =
2018-08-18 05:35 METAR KT82 181035Z AUTO 00000KT 10SM CLR 23/18 A3010 RMK AO2 T02260178 =
2018-08-18 05:15 METAR KT82 181015Z AUTO 00000KT 10SM CLR 23/18 A3009 RMK AO2 T02280177 =
2018-08-18 04:55 METAR KT82 180955Z AUTO 00000KT 10SM CLR 23/18 A3010 RMK AO2 T02340177 =
2018-08-18 04:35 METAR KT82 180935Z AUTO 00000KT 10SM CLR 23/18 A3009 RMK AO2 T02330176 =
2018-08-18 04:15 METAR KT82 180915Z AUTO 00000KT 10SM CLR 23/17 A3009 RMK AO2 T02330174 =
2018-08-18 03:55 METAR KT82 180855Z AUTO 00000KT 10SM CLR 24/17 A3009 RMK AO2 T02360170 =
2018-08-18 03:35 METAR KT82 180835Z AUTO 00000KT 10SM CLR 24/17 A3009 RMK AO2 T02360165 =
2018-08-18 03:15 METAR KT82 180815Z AUTO 00000KT 10SM CLR 24/16 A3009 RMK AO2 T02400160 =
2018-08-18 02:55 METAR KT82 180755Z AUTO 00000KT 10SM CLR 24/15 A3010 RMK AO2 T02440153 =
2018-08-18 02:35 METAR KT82 180735Z AUTO 00000KT 10SM CLR 25/15 A3010 RMK AO2 T02500153 =
2018-08-18 02:15 METAR KT82 180715Z AUTO 00000KT 10SM CLR 26/15 A3011 RMK AO2 T02550150 =
2018-08-18 01:55 METAR KT82 180655Z AUTO 00000KT 10SM CLR 26/15 A3010 RMK AO2 T02550150 =
2018-08-18 01:35 METAR KT82 180635Z AUTO 00000KT 10SM CLR 26/16 A3010 RMK AO2 T02550163 =
2018-08-18 01:15 METAR KT82 180615Z AUTO 00000KT 10SM CLR 26/17 A3010 RMK AO2 T02570166 =
2018-08-18 00:55 METAR KT82 180555Z AUTO 00000KT 10SM CLR 26/17 A3010 RMK AO2 T02630167 10342
                 20249 403590221 =
2018-08-18 00:35 METAR KT82 180535Z AUTO 00000KT 10SM CLR 27/17 A3010 RMK AO2 T02680167 =
2018-08-18 00:15 METAR KT82 180515Z AUTO 00000KT 10SM CLR 27/17 A3009 RMK AO2 T02710166 =
2018-08-17 23:55 METAR KT82 180455Z AUTO 00000KT 10SM CLR 28/16 A3010 RMK AO2 T02760162 =
2018-08-17 23:35 METAR KT82 180435Z AUTO 17009KT 10SM CLR 28/16 A3009 RMK AO2 T02820160 =
2018-08-17 23:15 METAR KT82 180415Z AUTO 00000KT 10SM CLR 26/15 A3009 RMK AO2 T02560151 =
2018-08-17 22:55 METAR KT82 180355Z AUTO 00000KT 10SM CLR 25/15 A3007 RMK AO2 T02540148 =
2018-08-17 22:35 METAR KT82 180335Z AUTO 00000KT 10SM CLR 25/15 A3008 RMK AO2 T02540146 =
2018-08-17 22:15 METAR KT82 180315Z AUTO 00000KT 10SM CLR 27/15 A3007 RMK AO2 T02650145 =
2018-08-17 21:55 METAR KT82 180255Z AUTO 00000KT 10SM CLR 29/14 A3007 RMK AO2 T02850140 =
2018-08-17 21:35 METAR KT82 180235Z AUTO 00000KT 10SM CLR 29/14 A3007 RMK AO2 T02900136 =
2018-08-17 21:15 METAR KT82 180215Z AUTO 00000KT 10SM CLR 30/13 A3006 RMK AO2 T03000131 =
2018-08-17 20:55 METAR KT82 180155Z AUTO 00000KT 10SM CLR 31/13 A3005 RMK AO2 T03060129 =
2018-08-17 20:35 METAR KT82 180135Z AUTO 00000KT 10SM CLR 31/13 A3004 RMK AO2 T03110126 =
2018-08-17 20:15 METAR KT82 180115Z AUTO 00000KT 10SM CLR 32/13 A3004 RMK AO2 T03180126 =
2018-08-17 19:55 METAR KT82 180055Z AUTO 00000KT 10SM CLR 33/12 A3003 RMK AO2 T03270124 =
2018-08-17 19:35 METAR KT82 180035Z AUTO 00000KT 10SM CLR 34/12 A3002 RMK AO2 T03350124 =
2018-08-17 19:15 METAR KT82 180015Z AUTO 20008KT 10SM CLR 34/13 A3002 RMK AO2 T03400130 =
2018-08-17 18:55 METAR KT82 172355Z AUTO 21009KT 10SM CLR 34/13 A3002 RMK AO2 T03420130 10359
                 20328 =
2018-08-17 18:35 METAR KT82 172335Z AUTO 21004KT 10SM CLR 35/12 A3002 RMK AO2 T03500121 =
2018-08-17 18:15 METAR KT82 172315Z AUTO 19011G14KT 10SM CLR 35/12 A3002 RMK AO2 T03540124 =
2018-08-17 17:55 METAR KT82 172255Z AUTO 23010KT 10SM CLR 36/13 A3003 RMK AO2 T03560127 =
2018-08-17 17:35 METAR KT82 172235Z AUTO 20006G09KT 10SM CLR 36/13 A3002 RMK AO2 T03580126 =
2018-08-17 17:15 METAR KT82 172215Z AUTO 19007KT 10SM CLR 36/12 A3003 RMK AO2 T03590124 =
2018-08-17 16:55 METAR KT82 172155Z AUTO 17005G08KT 10SM SCT080 35/13 A3003 RMK AO2 T03510130 =
2018-08-17 16:35 METAR KT82 172135Z AUTO 20006KT 10SM SCT080 35/13 A3004 RMK AO2 T03490131 =
2018-08-17 16:15 METAR KT82 172115Z AUTO 00000KT 10SM CLR 35/13 A3004 RMK AO2 T03500130 =
2018-08-17 15:55 METAR KT82 172055Z AUTO 21009G14KT 10SM SCT070 36/14 A3005 RMK AO2 T03570136 =
2018-08-17 15:35 METAR KT82 172035Z AUTO 00000KT 10SM SCT070 36/14 A3006 RMK AO2 T03570135 =
2018-08-17 15:15 METAR KT82 172015Z AUTO 13006G14KT 10SM SCT065 35/14 A3006 RMK AO2 T03540141 =
2018-08-17 14:55 METAR KT82 171955Z AUTO 19008KT 10SM SCT065 35/15 A3007 RMK AO2 T03530145 =

Support USWX by starting your Amazon purchase here.